Time;durP1;ratioP1;P1;durP2;ratioP2;P2;SDS_P1;SDS_P2;PMS_P1;PMS_P2;Temp;Humidity;BMP_temperature;BMP_pressure;BME280_temperature;BME280_humidity;BME280_pressure;Samples;Min_cycle;Max_cycle;Signal;HPM_P1;HPM_P2
2024/01/25 00:00:01;;;;;;;;;62.50;49.25;;;;;4.35;64.75;101782.94;146603;659;46916;-71
2024/01/25 00:02:58;;;;;;;;;60.25;49.00;;;;;4.29;65.19;101777.25;146601;590;46014;-68
2024/01/25 00:05:57;;;;;;;;;79.33;64.00;;;;;4.28;64.66;101783.16;146602;638;46916;-71
2024/01/25 00:08:50;;;;;;;;;58.50;47.75;;;;;4.27;64.61;101773.63;146612;591;46021;-69
2024/01/25 00:11:42;;;;;;;;;63.00;49.00;;;;;4.26;64.74;101782.97;146603;608;47016;-71
2024/01/25 00:14:37;;;;;;;;;60.75;46.75;;;;;4.26;64.79;101787.22;146607;609;46020;-70
2024/01/25 00:17:49;;;;;;;;;;;;;;;;;;;;;
2024/01/25 00:20:43;;;;;;;;;53.00;44.25;;;;;4.21;64.85;101791.03;146608;622;46010;-71
2024/01/25 00:23:38;;;;;;;;;49.00;40.75;;;;;4.21;64.84;101780.78;146604;576;47016;-70
2024/01/25 00:26:46;;;;;;;;;46.75;39.25;;;;;4.19;66.31;101772.91;146606;607;47010;-70
2024/01/25 00:29:41;;;;;;;;;47.50;37.50;;;;;4.14;65.85;101757.09;146605;564;46016;-70
2024/01/25 00:32:36;;;;;;;;;45.50;39.00;;;;;4.11;66.15;101750.75;146600;651;46010;-70
2024/01/25 00:35:52;;;;;;;;;45.50;35.75;;;;;4.08;64.50;101740.19;146602;573;46012;-69
2024/01/25 00:38:59;;;;;;;;;42.25;34.75;;;;;4.01;65.91;101743.84;146610;626;47010;-69
2024/01/25 00:42:01;;;;;;;;;54.75;44.50;;;;;3.99;65.70;101744.47;146600;613;47012;-69
2024/01/25 00:45:06;;;;;;;;;46.50;38.25;;;;;3.96;64.67;101732.28;146611;579;46010;-70
2024/01/25 00:48:30;;;;;;;;;39.75;34.50;;;;;3.90;64.26;101735.16;146605;609;47012;-70
2024/01/25 00:51:32;;;;;;;;;42.00;34.75;;;;;3.87;65.86;101740.00;146606;692;47010;-71
2024/01/25 00:54:25;;;;;;;;;40.50;35.00;;;;;3.88;66.59;101740.91;146604;627;46016;-69
2024/01/25 00:57:26;;;;;;;;;34.25;29.50;;;;;3.87;66.26;101732.31;146599;577;47020;-68
2024/01/25 01:00:39;;;;;;;;;29.00;26.00;;;;;3.93;65.18;101720.06;146605;564;46016;-68
2024/01/25 01:03:43;;;;;;;;;48.25;36.75;;;;;3.93;64.97;101712.38;146602;590;46023;-68
2024/01/25 01:06:41;;;;;;;;;45.00;36.25;;;;;3.94;65.76;101723.53;146602;601;46016;-69
2024/01/25 01:09:47;;;;;;;;;30.25;27.75;;;;;3.93;65.60;101732.00;146605;688;47010;-70
2024/01/25 01:12:45;;;;;;;;;26.75;24.75;;;;;3.92;65.00;101718.28;146602;652;46016;-70
2024/01/25 01:15:45;;;;;;;;;27.00;25.25;;;;;3.97;65.82;101693.03;146604;592;46020;-70
2024/01/25 01:18:46;;;;;;;;;25.75;20.50;;;;;3.29;65.38;101584.91;146602;576;46016;-70
2024/01/25 01:21:53;;;;;;;;;39.00;31.25;;;;;3.96;65.46;101710.81;146599;592;46918;-69
2024/01/25 01:24:55;;;;;;;;;37.00;30.75;;;;;3.98;64.98;101717.00;146603;634;47012;-69
2024/01/25 01:27:55;;;;;;;;;32.50;27.00;;;;;4.01;64.78;101722.44;146606;644;47010;-70
2024/01/25 01:30:48;;;;;;;;;26.75;22.25;;;;;4.04;65.47;101727.84;146602;591;47012;-70
2024/01/25 01:33:51;;;;;;;;;25.50;23.50;;;;;4.04;66.22;101739.00;146602;581;47020;-72
2024/01/25 01:36:46;;;;;;;;;32.75;29.50;;;;;3.99;65.54;101735.13;146605;583;46016;-71
2024/01/25 01:39:46;;;;;;;;;27.25;25.50;;;;;3.91;65.96;101733.50;146606;569;46010;-71
2024/01/25 01:42:44;;;;;;;;;34.00;29.25;;;;;3.89;65.96;101725.69;146603;577;46016;-72
2024/01/25 01:45:49;;;;;;;;;24.75;23.00;;;;;3.84;65.66;101723.44;146607;578;46010;-71
2024/01/25 01:48:46;;;;;;;;;24.75;20.75;;;;;3.77;66.57;101713.34;146600;571;47016;-71
2024/01/25 01:51:58;;;;;;;;;27.75;25.00;;;;;3.74;66.41;101711.41;146606;705;46052;-71
2024/01/25 01:54:56;;;;;;;;;26.25;24.00;;;;;3.78;66.12;101730.56;146603;794;46013;-69
2024/01/25 01:58:12;;;;;;;;;33.75;27.00;;;;;2.35;66.15;101450.56;146608;608;46020;-68
2024/01/25 02:01:08;;;;;;;;;31.25;24.25;;;;;3.92;65.72;101704.50;146603;731;46017;-69
2024/01/25 02:04:04;;;;;;;;;54.50;43.00;;;;;4.01;65.62;101707.03;146605;571;46010;-67
2024/01/25 02:07:04;;;;;;;;;31.00;28.50;;;;;4.02;65.40;101707.19;146606;639;47015;-68
2024/01/25 02:10:00;;;;;;;;;28.50;26.00;;;;;4.03;65.11;101702.97;146610;564;46020;-69
2024/01/25 02:13:01;;;;;;;;;49.75;37.50;;;;;3.99;65.45;101695.72;146607;705;46012;-70
2024/01/25 02:16:20;;;;;;;;;33.25;27.00;;;;;3.97;64.62;101695.59;146608;640;46011;-70
2024/01/25 02:19:14;;;;;;;;;41.25;33.50;;;;;3.92;64.79;101696.81;146602;570;47012;-70
2024/01/25 02:22:11;;;;;;;;;40.25;33.25;;;;;3.98;64.69;101684.53;146610;573;47010;-70
2024/01/25 02:25:31;;;;;;;;;49.25;40.00;;;;;4.04;65.29;101663.69;146604;594;46016;-70
2024/01/25 02:28:38;;;;;;;;;;;;;;;;;;;;;
2024/01/25 02:31:44;;;;;;;;;37.50;30.75;;;;;3.95;64.73;101671.44;146600;566;47014;-71
2024/01/25 02:34:47;;;;;;;;;38.75;32.00;;;;;3.92;66.01;101661.81;146602;593;47014;-75
2024/01/25 02:37:55;;;;;;;;;77.00;57.00;;;;;3.91;66.07;101662.56;146606;648;46017;-73
2024/01/25 02:40:54;;;;;;;;;42.75;35.25;;;;;3.87;68.01;101655.34;146607;602;47010;-74
2024/01/25 02:44:01;;;;;;;;;41.00;32.25;;;;;3.90;67.74;101653.06;146600;655;47016;-74
2024/01/25 02:47:01;;;;;;;;;62.75;48.75;;;;;3.92;66.86;101650.63;146607;602;46010;-73
2024/01/25 02:50:08;;;;;;;;;31.25;26.25;;;;;3.94;66.65;101654.25;146602;578;47016;-75
2024/01/25 02:53:02;;;;;;;;;38.00;32.00;;;;;3.89;67.57;101641.00;146604;610;47010;-76
2024/01/25 02:56:15;;;;;;;;;25.25;22.50;;;;;3.86;67.53;101644.91;146603;652;46016;-73
2024/01/25 02:59:15;;;;;;;;;22.75;19.00;;;;;3.80;67.40;101652.97;146610;591;46020;-76
2024/01/25 03:02:13;;;;;;;;;26.25;22.75;;;;;3.76;67.72;101652.53;146603;580;47014;-72
2024/01/25 03:05:12;;;;;;;;;23.00;19.50;;;;;3.69;67.36;101628.88;146603;603;46020;-71
2024/01/25 03:08:19;;;;;;;;;26.00;23.00;;;;;2.38;65.81;101403.88;146605;585;46016;-69
2024/01/25 03:11:17;;;;;;;;;40.00;33.50;;;;;3.70;67.17;101640.94;146607;565;46010;-69
2024/01/25 03:14:13;;;;;;;;;27.25;22.25;;;;;3.72;67.79;101614.53;146605;566;46016;-68
2024/01/25 03:17:20;;;;;;;;;24.25;23.25;;;;;3.72;66.66;101625.69;146607;563;46010;-69
2024/01/25 03:20:21;;;;;;;;;22.00;18.50;;;;;3.76;66.44;101629.44;146600;590;46583;-70
2024/01/25 03:23:16;;;;;;;;;25.25;20.00;;;;;3.77;66.79;101632.19;146610;577;46021;-72
2024/01/25 03:26:29;;;;;;;;;38.00;31.25;;;;;3.75;66.57;101636.25;146606;594;46016;-70
2024/01/25 03:29:50;;;;;;;;;22.25;18.50;;;;;3.77;66.42;101646.63;146603;646;47021;-72
2024/01/25 03:32:41;;;;;;;;;21.00;20.00;;;;;3.79;66.36;101640.00;146605;587;46042;-70
2024/01/25 03:35:38;;;;;;;;;37.75;30.75;;;;;3.82;66.34;101641.19;146602;588;46020;-71
2024/01/25 03:38:41;;;;;;;;;23.00;21.00;;;;;3.86;65.86;101625.31;146606;570;47035;-71
2024/01/25 03:41:36;;;;;;;;;23.75;23.00;;;;;3.88;67.17;101615.19;146607;620;47020;-70
2024/01/25 03:44:30;;;;;;;;;19.25;17.75;;;;;3.85;67.12;101617.47;146603;639;46024;-69
2024/01/25 03:47:23;;;;;;;;;25.50;24.50;;;;;3.81;66.37;101620.53;146607;573;47010;-70
2024/01/25 03:50:19;;;;;;;;;25.75;23.25;;;;;3.77;66.94;101610.72;146604;580;46916;-71
2024/01/25 03:53:17;;;;;;;;;20.00;18.50;;;;;3.74;66.34;101606.25;146607;571;46020;-70
2024/01/25 03:56:26;;;;;;;;;18.50;16.50;;;;;3.74;66.19;101597.62;146602;599;46035;-70
2024/01/25 03:59:29;;;;;;;;;12.25;12.25;;;;;3.75;65.79;101597.78;146610;590;46011;-69
2024/01/25 04:02:48;;;;;;;;;13.00;12.50;;;;;3.79;66.71;101586.13;146605;577;46016;-70
2024/01/25 04:05:52;;;;;;;;;19.25;12.75;;;;;3.78;65.59;101592.94;146600;594;46020;-70
2024/01/25 04:08:49;;;;;;;;;16.75;15.00;;;;;3.81;65.90;101580.38;146604;633;46014;-70
2024/01/25 04:11:51;;;;;;;;;21.00;17.50;;;;;3.88;65.49;101580.16;146607;580;46020;-71
2024/01/25 04:14:46;;;;;;;;;15.50;13.25;;;;;3.90;65.67;101576.09;146605;565;47017;-71
2024/01/25 04:17:53;;;;;;;;;20.00;17.00;;;;;3.89;65.02;101582.00;146613;723;46020;-70
2024/01/25 04:20:56;;;;;;;;;23.75;20.00;;;;;3.92;65.03;101596.75;146607;570;46031;-71
2024/01/25 04:23:51;;;;;;;;;24.75;23.50;;;;;3.96;65.11;101627.06;146606;577;46020;-71
2024/01/25 04:26:45;;;;;;;;;19.50;16.25;;;;;3.90;64.92;101623.94;146603;572;46016;-68
2024/01/25 04:29:49;;;;;;;;;19.25;17.50;;;;;3.84;64.72;101611.44;146610;634;47021;-68
2024/01/25 04:32:58;;;;;;;;;19.25;17.00;;;;;2.61;64.70;101400.91;146606;631;46016;-66
2024/01/25 04:36:06;;;;;;;;;;;;;;;;;;;;;
2024/01/25 04:39:07;;;;;;;;;36.25;31.00;;;;;3.86;65.16;101603.88;146604;575;46016;-66
2024/01/25 04:42:12;;;;;;;;;;;;;;;;;;;;;
2024/01/25 04:45:19;;;;;;;;;23.25;19.25;;;;;3.87;65.21;101600.56;146603;572;47012;-68
2024/01/25 04:48:15;;;;;;;;;14.00;12.00;;;;;3.90;64.87;101603.41;146605;586;46010;-68
2024/01/25 04:51:09;;;;;;;;;53.75;42.50;;;;;3.94;64.46;101591.00;146603;602;47014;-70
2024/01/25 04:54:11;;;;;;;;;43.50;33.00;;;;;4.04;64.63;101579.91;146609;609;47031;-69
2024/01/25 04:57:26;;;;;;;;;33.25;31.50;;;;;4.06;64.14;101575.81;146604;607;47031;-69
2024/01/25 05:00:35;;;;;;;;;21.25;19.25;;;;;4.10;63.67;101582.13;146606;577;46020;-69
2024/01/25 05:03:30;;;;;;;;;18.00;15.00;;;;;4.11;64.37;101592.53;146605;577;46012;-69
2024/01/25 05:06:30;;;;;;;;;13.25;12.50;;;;;4.13;64.90;101582.41;146602;564;46021;-70
2024/01/25 05:09:31;;;;;;;;;20.25;17.25;;;;;4.14;64.28;101577.41;146604;696;47012;-69
2024/01/25 05:12:51;;;;;;;;;25.00;23.00;;;;;3.01;63.25;101378.22;146604;575;47015;-70
2024/01/25 05:15:52;;;;;;;;;33.25;25.50;;;;;4.19;63.96;101574.34;146602;618;46016;-71
2024/01/25 05:19:02;;;;;;;;;37.00;27.75;;;;;4.20;64.08;101574.47;146608;607;46014;-71
2024/01/25 05:22:06;;;;;;;;;20.00;17.00;;;;;4.20;64.02;101568.44;146605;594;46917;-72
2024/01/25 05:25:10;;;;;;;;;19.00;16.50;;;;;4.20;63.46;101576.16;146607;619;47020;-72
2024/01/25 05:28:05;;;;;;;;;39.25;35.00;;;;;4.23;64.10;101581.56;146605;661;46016;-71
2024/01/25 05:31:09;;;;;;;;;21.00;19.25;;;;;4.23;63.59;101568.72;146606;566;46014;-71
2024/01/25 05:34:08;;;;;;;;;16.50;15.00;;;;;4.23;64.07;101569.63;146603;618;47012;-73
2024/01/25 05:37:04;;;;;;;;;20.50;15.25;;;;;4.17;64.89;101576.78;146602;564;46010;-71
2024/01/25 05:40:07;;;;;;;;;27.25;25.75;;;;;4.14;64.77;101592.81;146604;585;47012;-71
2024/01/25 05:43:03;;;;;;;;;31.00;26.25;;;;;4.14;65.06;101585.13;146605;618;48011;-72
2024/01/25 05:46:16;;;;;;;;;25.25;22.25;;;;;4.20;64.86;101581.28;146603;626;46014;-71
2024/01/25 05:49:14;;;;;;;;;24.00;21.00;;;;;4.20;65.59;101573.59;146605;567;47010;-70
2024/01/25 05:52:27;;;;;;;;;39.00;29.75;;;;;4.30;64.56;101568.50;146604;565;47012;-71
2024/01/25 05:55:24;;;;;;;;;47.00;36.00;;;;;4.35;65.15;101572.37;146608;632;46020;-71
2024/01/25 05:58:19;;;;;;;;;52.50;42.00;;;;;4.43;64.74;101574.00;146601;564;46016;-71
2024/01/25 06:01:24;;;;;;;;;26.50;22.75;;;;;4.46;66.35;101583.63;146606;652;47010;-71
2024/01/25 06:04:36;;;;;;;;;23.25;18.75;;;;;4.48;65.83;101574.38;146601;576;46016;-71
2024/01/25 06:07:33;;;;;;;;;23.25;17.25;;;;;4.52;65.26;101577.38;146602;565;47020;-72
2024/01/25 06:10:39;;;;;;;;;83.00;70.33;;;;;4.60;64.37;101576.37;146623;594;46016;-75
2024/01/25 06:13:54;;;;;;;;;72.33;56.00;;;;;4.70;64.63;101565.22;146641;581;45021;-77
2024/01/25 06:16:58;;;;;;;;;;;;;;;;;;;;;
2024/01/25 06:19:53;;;;;;;;;51.50;42.50;;;;;4.94;65.17;101563.91;146631;590;45015;-76
2024/01/25 06:22:49;;;;;;;;;68.75;50.75;;;;;5.03;64.86;101567.28;146629;613;46012;-77
2024/01/25 06:25:41;;;;;;;;;50.00;39.50;;;;;5.09;64.88;101547.25;146636;600;45020;-77
2024/01/25 06:28:32;;;;;;;;;52.00;39.75;;;;;5.13;65.33;101540.69;146624;706;46017;-75
2024/01/25 06:31:24;;;;;;;;;55.75;43.50;;;;;5.19;65.02;101555.75;146635;628;45010;-73
2024/01/25 06:34:16;;;;;;;;;48.00;35.75;;;;;5.24;66.30;101557.06;146635;557;45012;-73
2024/01/25 06:37:15;;;;;;;;;53.00;41.75;;;;;5.24;65.08;101567.34;146629;566;45044;-72
2024/01/25 06:40:17;;;;;;;;;56.50;44.25;;;;;4.45;64.51;101423.50;146632;614;45033;-71
2024/01/25 06:43:09;;;;;;;;;65.75;48.75;;;;;5.35;65.58;101579.44;146631;569;45021;-72
2024/01/25 06:46:01;;;;;;;;;69.25;52.00;;;;;5.42;66.07;101557.72;146631;634;45016;-72
2024/01/25 06:48:55;;;;;;;;;51.75;40.75;;;;;5.49;66.45;101555.81;146632;602;46010;-69
2024/01/25 06:51:46;;;;;;;;;55.75;43.25;;;;;5.55;65.80;101558.91;146624;604;48915;-71
2024/01/25 06:54:38;;;;;;;;;52.75;40.75;;;;;5.62;65.49;101551.69;146636;600;45026;-71
2024/01/25 06:57:29;;;;;;;;;58.50;43.00;;;;;5.70;65.08;101551.56;146622;570;47012;-70
2024/01/25 07:00:25;;;;;;;;;71.00;53.00;;;;;5.79;63.79;101553.97;146633;640;46010;-70
2024/01/25 07:03:19;;;;;;;;;60.75;43.75;;;;;5.91;63.98;101555.00;146633;604;45016;-71
2024/01/25 07:06:14;;;;;;;;;57.00;44.25;;;;;6.02;63.96;101545.66;146627;578;47022;-70
2024/01/25 07:09:09;;;;;;;;;48.25;37.75;;;;;6.12;62.84;101553.34;146622;582;45031;-72
2024/01/25 07:12:00;;;;;;;;;42.25;36.00;;;;;6.25;62.33;101557.81;146606;570;47021;-71
2024/01/25 07:14:54;;;;;;;;;37.75;33.75;;;;;6.37;62.37;101560.50;146603;580;47012;-70
2024/01/25 07:17:46;;;;;;;;;46.25;36.75;;;;;6.49;62.37;101564.06;146610;604;46020;-72
2024/01/25 07:20:41;;;;;;;;;45.00;34.75;;;;;6.59;61.67;101556.31;146605;626;46016;-72
2024/01/25 07:23:40;;;;;;;;;46.75;36.50;;;;;6.67;61.17;101562.97;146607;571;46020;-71
2024/01/25 07:26:31;;;;;;;;;41.00;35.75;;;;;6.74;60.88;101564.38;146603;661;46017;-69
2024/01/25 07:29:23;;;;;;;;;49.00;37.00;;;;;6.82;61.03;101565.87;146608;586;46010;-72
2024/01/25 07:32:21;;;;;;;;;40.00;35.50;;;;;6.87;60.19;101567.12;146604;563;46016;-74
2024/01/25 07:35:15;;;;;;;;;45.25;36.00;;;;;6.88;60.25;101556.03;146602;603;46021;-75
2024/01/25 07:38:10;;;;;;;;;45.25;35.50;;;;;6.89;59.83;101562.13;146603;575;46012;-74
2024/01/25 07:41:02;;;;;;;;;44.75;36.50;;;;;6.94;60.00;101555.63;146605;581;48020;-75
2024/01/25 07:43:55;;;;;;;;;53.50;41.25;;;;;6.97;59.52;101545.56;146604;613;47016;-76
2024/01/25 07:46:47;;;;;;;;;48.00;39.00;;;;;7.00;59.24;101540.62;146609;578;47010;-75
2024/01/25 07:49:38;;;;;;;;;42.75;36.25;;;;;7.02;59.30;101544.25;146607;594;47012;-75
2024/01/25 07:52:30;;;;;;;;;47.00;38.75;;;;;7.08;58.83;101552.47;146605;771;46010;-67
2024/01/25 07:55:21;;;;;;;;;49.25;40.00;;;;;7.11;59.83;101552.69;146604;564;46013;-76
2024/01/25 07:58:14;;;;;;;;;47.75;37.25;;;;;7.17;59.60;101560.03;146608;582;46020;-74
2024/01/25 08:01:15;;;;;;;;;48.25;33.75;;;;;7.24;58.78;101553.66;146599;593;48914;-75
2024/01/25 08:04:12;;;;;;;;;56.25;42.25;;;;;7.30;59.33;101557.59;146602;742;46021;-71
2024/01/25 08:07:08;;;;;;;;;32.75;27.25;;;;;7.35;59.19;101564.03;146604;601;46016;-70
2024/01/25 08:10:02;;;;;;;;;51.50;38.50;;;;;7.38;58.30;101566.84;146606;565;47020;-71
2024/01/25 08:13:13;;;;;;;;;49.75;38.75;;;;;7.40;58.78;101585.03;146605;593;47017;-72
2024/01/25 08:16:08;;;;;;;;;53.50;42.50;;;;;7.44;59.24;101588.72;146606;725;47010;-71
2024/01/25 08:19:03;;;;;;;;;53.25;39.50;;;;;7.54;59.52;101594.75;146603;591;46017;-72
2024/01/25 08:21:55;;;;;;;;;44.25;36.75;;;;;7.60;58.49;101581.38;146605;565;47020;-72
2024/01/25 08:24:49;;;;;;;;;44.00;34.25;;;;;7.67;57.88;101569.88;146602;626;47012;-71
2024/01/25 08:27:42;;;;;;;;;44.75;36.50;;;;;7.72;57.80;101565.94;146609;569;46021;-71
2024/01/25 08:30:39;;;;;;;;;54.25;42.00;;;;;7.74;58.38;101554.94;146599;565;47918;-71
2024/01/25 08:33:36;;;;;;;;;51.00;39.75;;;;;7.74;57.96;101565.28;146600;567;48011;-70
2024/01/25 08:36:28;;;;;;;;;43.25;36.25;;;;;7.72;58.15;101568.53;146605;574;46012;-72
2024/01/25 08:39:29;;;;;;;;;47.50;37.00;;;;;7.69;58.86;101582.09;146607;631;47010;-71
2024/01/25 08:42:22;;;;;;;;;15.25;13.00;;;;;7.71;59.38;101575.38;146604;570;46012;-71
2024/01/25 08:45:24;;;;;;;;;45.00;37.75;;;;;7.74;59.14;101583.34;146608;595;47010;-71
2024/01/25 08:48:17;;;;;;;;;45.75;37.25;;;;;7.80;59.76;101594.12;146605;600;46017;-70
2024/01/25 08:51:13;;;;;;;;;48.00;39.50;;;;;7.85;59.04;101607.41;146608;579;46010;-71
2024/01/25 08:54:14;;;;;;;;;55.25;43.50;;;;;7.89;58.75;101604.28;146605;689;46017;-71
2024/01/25 08:57:11;;;;;;;;;56.25;44.50;;;;;7.91;57.98;101601.78;146609;598;46020;-72
2024/01/25 09:00:08;;;;;;;;;47.50;36.50;;;;;7.89;57.98;101608.53;146606;633;46914;-72
2024/01/25 09:03:11;;;;;;;;;45.00;37.00;;;;;7.92;58.69;101598.44;146602;570;46021;-72
2024/01/25 09:06:15;;;;;;;;;43.75;34.25;;;;;7.96;57.54;101597.88;146605;571;47016;-71
2024/01/25 09:09:08;;;;;;;;;38.00;33.00;;;;;7.97;57.40;101604.84;146606;569;47010;-73
2024/01/25 09:12:00;;;;;;;;;43.00;33.50;;;;;8.01;56.83;101602.63;146603;595;47034;-71
2024/01/25 09:14:51;;;;;;;;;43.50;35.50;;;;;8.05;56.83;101591.72;146608;565;46020;-71
2024/01/25 09:17:46;;;;;;;;;46.00;36.50;;;;;8.15;57.18;101590.72;146598;571;47012;-72
2024/01/25 09:20:38;;;;;;;;;48.00;39.25;;;;;8.20;56.47;101591.09;146608;622;46010;-71
2024/01/25 09:23:44;;;;;;;;;51.00;40.25;;;;;8.21;56.31;101583.44;146607;671;46017;-71
2024/01/25 09:26:36;;;;;;;;;38.50;33.25;;;;;8.22;55.36;101587.81;146608;602;46020;-72
2024/01/25 09:29:39;;;;;;;;;46.50;37.50;;;;;8.22;55.89;101582.63;146602;571;46016;-71
2024/01/25 09:32:31;;;;;;;;;46.75;37.75;;;;;8.24;56.78;101567.28;146598;565;46020;-71
2024/01/25 09:35:25;;;;;;;;;47.00;37.25;;;;;8.28;56.80;101558.94;146605;634;46016;-70
2024/01/25 09:38:19;;;;;;;;;49.75;40.00;;;;;8.31;55.70;101557.47;146604;605;46010;-72
2024/01/25 09:41:11;;;;;;;;;38.00;33.50;;;;;8.34;55.71;101555.13;146604;586;46016;-72
2024/01/25 09:44:03;;;;;;;;;37.75;31.75;;;;;8.43;55.30;101561.78;146607;584;46010;-71
2024/01/25 09:47:02;;;;;;;;;41.00;33.00;;;;;8.51;54.90;101558.09;146601;564;47015;-69
2024/01/25 09:49:55;;;;;;;;;50.50;40.00;;;;;8.55;54.96;101549.75;146608;584;46021;-70
2024/01/25 09:52:59;;;;;;;;;55.25;39.50;;;;;8.58;55.40;101544.81;146606;575;46914;-69
2024/01/25 09:56:08;;;;;;;;;55.25;42.75;;;;;8.57;56.01;101548.19;146608;597;46020;-69
2024/01/25 09:59:02;;;;;;;;;61.00;49.00;;;;;8.54;56.54;101546.28;146603;636;46016;-69
2024/01/25 10:02:16;;;;;;;;;64.75;51.00;;;;;8.55;57.17;101542.00;146603;669;46021;-70
2024/01/25 10:05:16;;;;;;;;;61.75;48.00;;;;;8.60;57.79;101532.00;146604;609;47016;-70
2024/01/25 10:08:18;;;;;;;;;86.33;77.33;;;;;8.64;57.72;101521.09;146612;620;47032;-70
2024/01/25 10:11:14;;;;;;;;;62.50;49.75;;;;;8.68;57.20;101521.41;146607;579;47012;-69
2024/01/25 10:14:09;;;;;;;;;61.00;48.75;;;;;8.71;57.82;101516.47;146607;569;46034;-70
2024/01/25 10:17:04;;;;;;;;;58.50;45.75;;;;;8.74;57.59;101518.37;146605;564;46017;-70
2024/01/25 10:19:56;;;;;;;;;69.75;53.25;;;;;8.84;57.91;101512.16;146605;570;46010;-70
2024/01/25 10:22:49;;;;;;;;;61.00;46.25;;;;;8.94;57.67;101514.59;146602;590;46014;-70
2024/01/25 10:25:44;;;;;;;;;69.25;53.00;;;;;9.06;57.39;101501.63;146606;616;46021;-71
2024/01/25 10:28:36;;;;;;;;;67.25;52.50;;;;;9.17;56.79;101511.94;146603;615;46016;-70
2024/01/25 10:31:31;;;;;;;;;68.67;52.00;;;;;9.27;56.51;101502.22;146602;627;46021;-70
2024/01/25 10:34:29;;;;;;;;;65.50;51.50;;;;;9.35;56.46;101499.38;146603;674;46032;-70
2024/01/25 10:37:22;;;;;;;;;68.00;53.00;;;;;9.45;57.09;101490.53;146604;573;47010;-69
2024/01/25 10:40:40;;;;;;;;;68.25;52.50;;;;;9.56;56.69;101493.84;146604;564;47016;-70
2024/01/25 10:43:36;;;;;;;;;71.33;55.67;;;;;9.67;56.05;101483.41;146606;597;47010;-70
2024/01/25 10:46:38;;;;;;;;;75.67;66.67;;;;;9.75;55.86;101471.00;146606;582;46034;-70
2024/01/25 10:49:30;;;;;;;;;75.33;61.33;;;;;9.83;55.56;101463.72;146613;665;46020;-70
2024/01/25 10:52:24;;;;;;;;;69.00;55.50;;;;;9.90;55.70;101463.31;146601;589;46016;-70
2024/01/25 10:55:18;;;;;;;;;74.67;62.67;;;;;9.97;56.07;101456.84;146608;574;46010;-70
2024/01/25 10:58:12;;;;;;;;;75.33;63.00;;;;;10.04;56.16;101446.09;146612;614;46033;-71
2024/01/25 11:01:10;;;;;;;;;72.33;58.33;;;;;10.15;55.67;101438.19;146604;628;48015;-70
2024/01/25 11:04:02;;;;;;;;;70.33;58.67;;;;;10.31;55.35;101436.63;146604;590;47916;-71
2024/01/25 11:06:53;;;;;;;;;72.33;62.67;;;;;10.44;54.78;101434.03;146611;620;46020;-70
2024/01/25 11:09:47;;;;;;;;;74.67;59.67;;;;;10.52;52.77;101418.94;146603;564;47012;-71
2024/01/25 11:12:39;;;;;;;;;75.33;62.67;;;;;10.58;52.82;101417.59;146611;592;46010;-70
2024/01/25 11:15:55;;;;;;;;;65.50;48.75;;;;;10.64;52.70;101407.63;146603;566;46016;-71
2024/01/25 11:19:04;;;;;;;;;60.75;46.00;;;;;10.68;53.79;101402.63;146609;604;46020;-70
2024/01/25 11:21:59;;;;;;;;;61.00;46.25;;;;;10.70;54.91;101395.84;146601;570;47012;-70
2024/01/25 11:24:53;;;;;;;;;69.75;52.25;;;;;10.72;54.47;101394.25;146606;604;47020;-70
2024/01/25 11:27:46;;;;;;;;;64.75;49.75;;;;;10.73;54.47;101407.28;146601;610;47012;-69
2024/01/25 11:30:41;;;;;;;;;63.50;51.00;;;;;10.73;54.91;101396.91;146602;594;46020;-71
2024/01/25 11:33:33;;;;;;;;;69.25;50.50;;;;;10.74;54.91;101395.22;146601;615;46016;-70
2024/01/25 11:36:25;;;;;;;;;39.75;32.75;;;;;10.75;55.35;101390.13;146602;723;47010;-70
2024/01/25 11:39:37;;;;;;;;;52.50;40.75;;;;;10.86;55.06;101391.66;146603;589;48041;-69
2024/01/25 11:42:32;;;;;;;;;59.75;46.00;;;;;10.96;54.50;101374.94;146607;604;46020;-70
2024/01/25 11:45:26;;;;;;;;;44.75;34.50;;;;;11.06;53.84;101366.94;146602;573;47015;-70
2024/01/25 11:48:20;;;;;;;;;44.00;34.75;;;;;11.20;53.94;101372.03;146596;591;47021;-71
2024/01/25 11:51:15;;;;;;;;;34.00;30.25;;;;;11.38;53.43;101375.72;146597;581;46016;-70
2024/01/25 11:54:10;;;;;;;;;41.00;33.50;;;;;11.62;54.45;101364.94;146599;575;47020;-71
2024/01/25 11:57:13;;;;;;;;;44.50;33.75;;;;;11.95;53.39;101355.59;146598;846;46914;-70
2024/01/25 12:00:30;;;;;;;;;46.00;36.25;;;;;12.29;52.80;101344.44;146596;672;47011;-70
2024/01/25 12:03:23;;;;;;;;;45.25;36.75;;;;;12.66;51.28;101343.00;146596;618;46914;-71
2024/01/25 12:06:34;;;;;;;;;39.25;32.50;;;;;13.01;49.77;101333.50;146598;591;46020;-71
2024/01/25 12:09:26;;;;;;;;;41.25;35.00;;;;;13.22;49.56;101332.81;146599;569;46915;-70
2024/01/25 12:12:31;;;;;;;;;43.75;35.00;;;;;13.31;49.17;101336.81;146602;583;46020;-70
2024/01/25 12:15:22;;;;;;;;;49.00;40.25;;;;;13.26;48.81;101330.47;146600;598;46914;-71
2024/01/25 12:18:14;;;;;;;;;35.50;31.25;;;;;13.21;48.69;101316.31;146598;605;46020;-71
2024/01/25 12:21:10;;;;;;;;;32.75;29.00;;;;;13.12;48.74;101314.13;146599;614;46016;-71
2024/01/25 12:24:06;;;;;;;;;33.00;25.00;;;;;13.08;49.58;101311.28;146599;580;46021;-70
2024/01/25 12:27:01;;;;;;;;;34.00;29.50;;;;;13.09;48.66;101302.66;146595;576;46033;-71
2024/01/25 12:29:54;;;;;;;;;40.25;32.50;;;;;13.05;47.55;101295.50;146594;591;47021;-70
2024/01/25 12:32:46;;;;;;;;;32.75;29.00;;;;;12.92;48.80;101289.66;146594;592;46036;-70
2024/01/25 12:35:37;;;;;;;;;34.25;30.00;;;;;12.79;48.44;101292.47;146600;584;47010;-71
2024/01/25 12:38:35;;;;;;;;;36.75;32.00;;;;;12.71;48.91;101280.81;146597;594;46016;-70
2024/01/25 12:41:32;;;;;;;;;29.00;29.00;;;;;12.66;46.79;101264.03;146598;573;47010;-70
2024/01/25 12:44:25;;;;;;;;;33.50;29.75;;;;;12.87;48.65;101254.72;146597;631;46013;-70
2024/01/25 12:47:17;;;;;;;;;31.00;30.00;;;;;13.18;46.97;101251.06;146600;578;46010;-70
2024/01/25 12:50:12;;;;;;;;;31.25;26.00;;;;;13.50;44.82;101251.75;146597;628;47012;-71
2024/01/25 12:53:06;;;;;;;;;35.25;29.50;;;;;13.74;43.59;101260.72;146603;606;46010;-70
2024/01/25 12:55:58;;;;;;;;;34.25;29.25;;;;;13.97;43.51;101258.28;146597;631;46016;-71
2024/01/25 12:58:52;;;;;;;;;32.75;30.75;;;;;14.19;42.72;101250.59;146598;624;46020;-71
2024/01/25 13:01:44;;;;;;;;;27.75;26.25;;;;;14.22;42.73;101248.13;146596;590;48012;-70
2024/01/25 13:04:42;;;;;;;;;34.75;30.00;;;;;14.04;43.78;101256.00;146602;564;46020;-70
2024/01/25 13:07:34;;;;;;;;;40.00;32.00;;;;;13.85;45.05;101254.28;146592;617;47012;-71
2024/01/25 13:10:29;;;;;;;;;41.00;36.25;;;;;13.66;45.69;101269.88;146602;574;47010;-71
2024/01/25 13:13:21;;;;;;;;;41.00;34.50;;;;;13.45;45.24;101279.28;146595;723;47012;-70
2024/01/25 13:16:12;;;;;;;;;42.50;35.25;;;;;13.19;45.98;101281.47;146600;613;46020;-71
2024/01/25 13:19:04;;;;;;;;;47.00;38.25;;;;;12.93;46.67;101257.66;146596;569;47916;-70
2024/01/25 13:21:56;;;;;;;;;44.00;34.00;;;;;12.80;46.18;101256.94;146602;600;47010;-69
2024/01/25 13:24:47;;;;;;;;;36.75;32.00;;;;;12.65;45.70;101254.47;146595;630;47012;-70
2024/01/25 13:27:39;;;;;;;;;44.75;36.00;;;;;12.63;46.81;101256.09;146597;696;47020;-70
2024/01/25 13:30:30;;;;;;;;;51.00;42.00;;;;;13.03;45.75;101238.16;146594;588;47013;-71
2024/01/25 13:33:22;;;;;;;;;33.00;29.00;;;;;13.57;43.53;101240.78;146596;598;47014;-69
2024/01/25 13:36:14;;;;;;;;;38.00;31.25;;;;;14.15;41.39;101247.81;146594;681;47014;-71
2024/01/25 13:39:06;;;;;;;;;38.00;33.00;;;;;14.64;40.81;101263.03;146599;581;46020;-69
2024/01/25 13:42:09;;;;;;;;;43.25;35.00;;;;;14.99;41.75;101267.16;146599;605;46016;-69
2024/01/25 13:45:03;;;;;;;;;36.50;31.75;;;;;15.02;39.45;101269.91;146601;610;46014;-70